Time;durP1;ratioP1;P1;durP2;ratioP2;P2;SDS_P1;SDS_P2;PMS_P1;PMS_P2;Temp;Humidity;BMP_temperature;BMP_pressure;BME280_temperature;BME280_humidity;BME280_pressure;Samples;Min_cycle;Max_cycle;Signal;HPM_P1;HPM_P2
2023/03/24 00:02:21;;;;;;;15.43;11.20;;;16.10;64.10;;;;;;5052071;28;20033;-65
2023/03/24 00:04:48;;;;;;;18.33;11.30;;;16.00;64.30;;;;;;5051742;28;20029;-65
2023/03/24 00:07:15;;;;;;;16.63;10.95;;;16.00;64.60;;;;;;5051195;28;20029;-65
2023/03/24 00:09:42;;;;;;;15.98;11.60;;;16.00;64.40;;;;;;5051930;28;20095;-67
2023/03/24 00:12:12;;;;;;;19.95;12.35;;;15.90;64.50;;;;;;5052256;28;20359;-65
2023/03/24 00:14:39;;;;;;;21.05;12.85;;;15.90;64.30;;;;;;5051926;28;20076;-65
2023/03/24 00:17:08;;;;;;;16.63;12.77;;;15.90;65.10;;;;;;5053865;28;20029;-65
2023/03/24 00:19:37;;;;;;;21.88;11.85;;;15.80;64.80;;;;;;5064051;28;20059;-65
2023/03/24 00:22:04;;;;;;;23.30;13.02;;;15.80;64.80;;;;;;5071729;28;20035;-65
2023/03/24 00:24:30;;;;;;;21.55;13.13;;;15.80;64.80;;;;;;5072240;28;20035;-65
2023/03/24 00:26:56;;;;;;;20.55;13.07;;;15.70;65.10;;;;;;5071565;28;20020;-65
2023/03/24 00:29:26;;;;;;;25.15;13.85;;;15.70;65.30;;;;;;5074860;28;20036;-65
2023/03/24 00:31:52;;;;;;;22.73;12.73;;;15.70;65.40;;;;;;5066034;28;20071;-65
2023/03/24 00:34:21;;;;;;;23.92;12.55;;;15.60;65.60;;;;;;5055965;28;20060;-66
2023/03/24 00:36:49;;;;;;;20.67;12.15;;;15.60;65.60;;;;;;5055423;28;20025;-64
2023/03/24 00:39:17;;;;;;;17.90;11.95;;;15.60;65.60;;;;;;5055853;28;20025;-64
2023/03/24 00:41:44;;;;;;;19.67;11.85;;;15.60;65.80;;;;;;5055693;28;20115;-67
2023/03/24 00:44:17;;;;;;;20.83;12.38;;;15.60;66.10;;;;;;5055894;28;20124;-66
2023/03/24 00:46:54;;;;;;;20.88;12.52;;;15.60;66.20;;;;;;5035762;28;20053;-66
2023/03/24 00:49:40;;;;;;;22.90;12.23;;;15.60;66.20;;;;;;5035340;28;20504;-66
2023/03/24 00:52:19;;;;;;;19.92;12.82;;;15.60;66.00;;;;;;5073838;28;20121;-66
2023/03/24 00:54:47;;;;;;;17.63;10.73;;;15.60;66.20;;;;;;5075214;28;20021;-65
2023/03/24 00:57:20;;;;;;;20.20;11.52;;;15.60;66.20;;;;;;5075351;28;20028;-66
2023/03/24 00:59:49;;;;;;;17.95;11.63;;;15.50;66.30;;;;;;5075281;28;20032;-66
2023/03/24 01:02:20;;;;;;;26.45;11.98;;;15.50;66.30;;;;;;5074411;28;20377;-65
2023/03/24 01:04:52;;;;;;;22.20;12.57;;;15.50;66.50;;;;;;5075178;28;20044;-66
2023/03/24 01:07:20;;;;;;;18.65;11.23;;;15.50;66.40;;;;;;5075562;28;20028;-65
2023/03/24 01:09:56;;;;;;;17.25;11.27;;;15.50;66.50;;;;;;5074971;28;20456;-66
2023/03/24 01:12:28;;;;;;;19.85;10.73;;;15.50;66.50;;;;;;5062421;28;20119;-66
2023/03/24 01:14:56;;;;;;;15.40;9.93;;;15.50;66.40;;;;;;5054587;28;20108;-66
2023/03/24 01:17:24;;;;;;;16.83;10.60;;;15.40;66.50;;;;;;5053394;28;20144;-65
2023/03/24 01:19:53;;;;;;;19.05;11.10;;;15.40;66.70;;;;;;5054661;28;20041;-66
2023/03/24 01:22:19;;;;;;;19.52;10.05;;;15.40;66.90;;;;;;5055342;28;20067;-66
2023/03/24 01:24:47;;;;;;;17.15;10.77;;;15.40;67.00;;;;;;5053711;28;20082;-66
2023/03/24 01:27:13;;;;;;;22.92;10.50;;;15.40;67.20;;;;;;5054905;28;20466;-66
2023/03/24 01:29:39;;;;;;;20.20;10.57;;;15.40;67.30;;;;;;5055064;28;20029;-65
2023/03/24 01:32:05;;;;;;;20.00;10.95;;;15.40;67.20;;;;;;5054507;28;20032;-64
2023/03/24 01:34:31;;;;;;;21.90;10.77;;;15.40;67.20;;;;;;5054913;28;20111;-65
2023/03/24 01:36:58;;;;;;;21.35;10.25;;;15.30;67.30;;;;;;5054324;28;20041;-65
2023/03/24 01:39:23;;;;;;;22.13;10.65;;;15.30;67.60;;;;;;5055042;28;20032;-65
2023/03/24 01:41:49;;;;;;;15.68;10.27;;;15.30;67.50;;;;;;5054053;28;20025;-67
2023/03/24 01:44:35;;;;;;;16.65;10.75;;;15.30;67.90;;;;;;5054192;28;20116;-65
2023/03/24 01:47:05;;;;;;;16.23;10.48;;;15.30;67.90;;;;;;5053917;28;20331;-65
2023/03/24 01:49:42;;;;;;;19.15;10.55;;;15.30;68.00;;;;;;5054450;28;20033;-65
2023/03/24 01:52:15;;;;;;;23.27;11.23;;;15.30;68.20;;;;;;5054107;28;20067;-65
2023/03/24 01:54:51;;;;;;;25.10;10.80;;;15.30;68.30;;;;;;5055179;28;20035;-65
2023/03/24 01:57:24;;;;;;;23.58;12.18;;;15.30;68.30;;;;;;5054739;28;20550;-65
2023/03/24 01:59:54;;;;;;;17.70;11.20;;;15.30;68.60;;;;;;5054299;28;20475;-65
2023/03/24 02:02:20;;;;;;;23.85;11.00;;;15.30;68.50;;;;;;5054571;28;20017;-65
2023/03/24 02:04:52;;;;;;;18.50;11.00;;;15.30;68.50;;;;;;5054541;28;20029;-65
2023/03/24 02:07:33;;;;;;;20.27;11.13;;;15.30;68.40;;;;;;5054406;28;20062;-65
2023/03/24 02:10:02;;;;;;;22.20;11.63;;;15.30;69.10;;;;;;5052518;28;20041;-66
2023/03/24 02:12:31;;;;;;;22.08;12.60;;;15.20;69.10;;;;;;5054178;28;20028;-65
2023/03/24 02:14:56;;;;;;;21.17;12.45;;;15.20;69.20;;;;;;5053529;28;20064;-65
2023/03/24 02:17:33;;;;;;;23.85;12.93;;;15.20;69.60;;;;;;5053749;28;20451;-64
2023/03/24 02:20:09;;;;;;;21.17;13.27;;;15.20;69.90;;;;;;5053694;28;20029;-65
2023/03/24 02:22:41;;;;;;;22.38;13.30;;;15.20;69.90;;;;;;5054022;28;20028;-65
2023/03/24 02:25:16;;;;;;;19.90;12.77;;;15.00;70.40;;;;;;5053560;28;20029;-65
2023/03/24 02:28:23;;;;;;;21.42;12.77;;;14.80;71.00;;;;;;5053609;28;20431;-65
2023/03/24 02:31:16;;;;;;;26.23;13.35;;;14.70;72.00;;;;;;5031341;28;20042;-65
2023/03/24 02:34:31;;;;;;;21.92;14.18;;;14.50;72.40;;;;;;5051644;28;20028;-65
2023/03/24 02:37:26;;;;;;;20.33;13.63;;;14.50;72.90;;;;;;5053825;28;20111;-66
2023/03/24 02:40:22;;;;;;;22.60;14.20;;;14.50;72.80;;;;;;5071580;28;20116;-64
2023/03/24 02:43:08;;;;;;;22.17;13.50;;;14.50;72.70;;;;;;5071030;28;20165;-64
2023/03/24 02:45:51;;;;;;;19.42;14.63;;;14.50;72.70;;;;;;5071383;28;20028;-65
2023/03/24 02:48:22;;;;;;;22.48;14.23;;;14.40;73.30;;;;;;5070954;28;20474;-64
2023/03/24 02:51:08;;;;;;;21.48;14.10;;;14.40;73.70;;;;;;5070882;28;20036;-65
2023/03/24 02:53:59;;;;;;;28.15;14.77;;;14.40;73.90;;;;;;5070651;28;20029;-65
2023/03/24 02:56:33;;;;;;;21.23;13.32;;;14.30;74.00;;;;;;5070960;28;20529;-64
2023/03/24 02:59:03;;;;;;;22.70;14.07;;;14.30;74.00;;;;;;5070537;28;20051;-64
2023/03/24 03:01:40;;;;;;;21.88;13.73;;;14.30;74.30;;;;;;5062443;28;20127;-66
2023/03/24 03:04:13;;;;;;;23.65;13.70;;;14.30;74.40;;;;;;5052792;28;20032;-65
2023/03/24 03:06:42;;;;;;;20.98;14.30;;;14.30;74.10;;;;;;5053120;28;20028;-65
2023/03/24 03:09:14;;;;;;;23.73;14.95;;;14.30;74.30;;;;;;5052329;28;20029;-65
2023/03/24 03:11:45;;;;;;;23.88;14.98;;;14.30;74.20;;;;;;5050373;28;20019;-66
2023/03/24 03:14:24;;;;;;;28.30;15.48;;;14.30;74.20;;;;;;5051767;28;20028;-66
2023/03/24 03:16:58;;;;;;;26.38;15.13;;;14.40;74.70;;;;;;5050069;28;20385;-66
2023/03/24 03:19:54;;;;;;;26.85;15.48;;;14.40;74.90;;;;;;5053263;28;20033;-65
2023/03/24 03:22:27;;;;;;;28.45;16.05;;;14.40;74.90;;;;;;5050272;28;20170;-66
2023/03/24 03:24:56;;;;;;;23.58;15.75;;;14.40;74.90;;;;;;5051733;28;20029;-66
2023/03/24 03:27:30;;;;;;;21.90;15.27;;;14.40;75.00;;;;;;5052682;28;20026;-65
2023/03/24 03:30:03;;;;;;;28.05;16.15;;;14.40;74.90;;;;;;5052813;28;20040;-66
2023/03/24 03:32:33;;;;;;;27.48;16.35;;;14.40;74.70;;;;;;5053074;28;20021;-66
2023/03/24 03:35:21;;;;;;;24.95;16.98;;;14.40;74.80;;;;;;5052553;28;20025;-66
2023/03/24 03:37:55;;;;;;;25.77;15.13;;;14.40;74.90;;;;;;5052868;28;20025;-66
2023/03/24 03:40:40;;;;;;;27.58;15.52;;;14.40;75.20;;;;;;5052725;28;20033;-66
2023/03/24 03:43:06;;;;;;;26.90;15.27;;;14.40;75.00;;;;;;5051929;28;20489;-66
2023/03/24 03:45:33;;;;;;;27.58;15.73;;;14.40;75.00;;;;;;5052844;28;20078;-66
2023/03/24 03:48:00;;;;;;;17.88;14.68;;;14.40;75.30;;;;;;5052297;28;20028;-67
2023/03/24 03:50:25;;;;;;;24.35;15.23;;;14.40;75.30;;;;;;5052490;28;20043;-66
2023/03/24 03:52:52;;;;;;;29.02;15.63;;;14.40;75.30;;;;;;5052763;28;20116;-66
2023/03/24 03:55:18;;;;;;;28.20;16.42;;;14.40;75.70;;;;;;5052157;28;20032;-66
2023/03/24 03:57:44;;;;;;;25.20;16.52;;;14.40;75.90;;;;;;5052693;28;20029;-66
2023/03/24 04:00:18;;;;;;;26.42;16.33;;;14.40;76.40;;;;;;5050889;28;20128;-66
2023/03/24 04:02:59;;;;;;;30.27;16.27;;;14.40;77.00;;;;;;5052175;28;20086;-66
2023/03/24 04:05:31;;;;;;;33.08;16.88;;;14.40;76.60;;;;;;5052018;28;20025;-66
2023/03/24 04:08:27;;;;;;;21.13;16.48;;;14.40;77.00;;;;;;5052477;28;20079;-66
2023/03/24 04:11:20;;;;;;;20.80;15.38;;;14.40;76.60;;;;;;5042836;28;20047;-66
2023/03/24 04:14:09;;;;;;;20.92;14.38;;;14.30;76.60;;;;;;5052182;28;20053;-66
2023/03/24 04:16:38;;;;;;;17.58;13.30;;;14.20;76.30;;;;;;5052482;28;20104;-66
2023/03/24 04:19:12;;;;;;;23.05;11.45;;;14.20;75.60;;;;;;5051644;28;20496;-66
2023/03/24 04:22:09;;;;;;;18.13;11.50;;;14.10;75.30;;;;;;5052298;28;20025;-64
2023/03/24 04:24:55;;;;;;;21.55;11.93;;;13.90;75.70;;;;;;5052422;28;20040;-64
2023/03/24 04:27:45;;;;;;;17.17;10.50;;;13.90;76.10;;;;;;5050378;28;20469;-65
2023/03/24 04:30:42;;;;;;;14.60;10.77;;;13.80;75.90;;;;;;5051685;28;20037;-65
2023/03/24 04:33:27;;;;;;;20.77;10.85;;;13.70;75.90;;;;;;5051472;28;20021;-65
2023/03/24 04:36:17;;;;;;;14.20;10.77;;;13.70;76.50;;;;;;5052151;28;20032;-64
2023/03/24 04:38:47;;;;;;;14.70;10.48;;;13.60;76.10;;;;;;5051082;28;20075;-64
2023/03/24 04:41:16;;;;;;;18.05;10.18;;;13.70;76.20;;;;;;5051584;28;20036;-66
2023/03/24 04:43:44;;;;;;;17.83;10.88;;;13.70;76.20;;;;;;5051572;28;20060;-65
2023/03/24 04:46:10;;;;;;;19.55;10.85;;;13.70;76.40;;;;;;5051755;28;20112;-66
2023/03/24 04:48:36;;;;;;;19.42;11.07;;;13.70;76.20;;;;;;5052123;28;20032;-64
2023/03/24 04:51:02;;;;;;;15.93;11.05;;;13.70;76.40;;;;;;5050632;28;20040;-64
2023/03/24 04:53:28;;;;;;;15.85;12.43;;;13.80;76.30;;;;;;5051537;28;20029;-66
2023/03/24 04:56:25;;;;;;;22.98;11.88;;;13.80;75.90;;;;;;5051739;28;20050;-65
2023/03/24 04:58:50;;;;;;;20.05;13.05;;;13.80;75.90;;;;;;5052046;28;20021;-64
2023/03/24 05:01:16;;;;;;;18.30;12.18;;;13.70;76.50;;;;;;5051862;28;20473;-65
2023/03/24 05:03:44;;;;;;;23.88;11.60;;;13.70;76.90;;;;;;5051919;28;20419;-66
2023/03/24 05:06:11;;;;;;;16.17;11.70;;;13.70;77.10;;;;;;5051502;28;20037;-66
2023/03/24 05:08:37;;;;;;;15.13;11.80;;;13.80;77.10;;;;;;5051600;28;20021;-66
2023/03/24 05:11:03;;;;;;;12.48;9.02;;;13.80;76.70;;;;;;5051881;28;20060;-65
2023/03/24 05:13:29;;;;;;;11.32;8.38;;;13.80;75.60;;;;;;5051536;28;20025;-65
2023/03/24 05:15:55;;;;;;;13.30;8.75;;;13.70;74.90;;;;;;5053428;28;20115;-65
2023/03/24 05:18:21;;;;;;;17.00;9.23;;;13.80;74.70;;;;;;5054976;28;20116;-65
2023/03/24 05:20:46;;;;;;;10.65;9.13;;;13.80;74.40;;;;;;5055068;28;20029;-64
2023/03/24 05:23:12;;;;;;;12.73;9.70;;;13.80;74.30;;;;;;5054085;28;20082;-65
2023/03/24 05:25:38;;;;;;;14.18;9.13;;;13.80;74.40;;;;;;5055383;28;20021;-65
2023/03/24 05:28:04;;;;;;;12.43;9.98;;;13.80;74.80;;;;;;5055362;28;20104;-65
2023/03/24 05:30:30;;;;;;;14.57;11.30;;;13.80;74.80;;;;;;5053494;28;20040;-65
2023/03/24 05:32:55;;;;;;;23.15;10.95;;;13.80;75.00;;;;;;5054919;28;20079;-65
2023/03/24 05:35:21;;;;;;;17.38;12.93;;;13.70;75.00;;;;;;5054779;28;20029;-65
2023/03/24 05:37:47;;;;;;;17.60;12.90;;;13.70;75.50;;;;;;5055034;28;20025;-65
2023/03/24 05:40:14;;;;;;;17.05;13.50;;;13.70;76.00;;;;;;5054698;28;20121;-64
2023/03/24 05:42:40;;;;;;;17.63;14.63;;;13.70;76.20;;;;;;5054801;28;20057;-66
2023/03/24 05:45:06;;;;;;;20.38;14.98;;;13.70;76.10;;;;;;5054976;28;20052;-65
2023/03/24 05:47:32;;;;;;;19.92;15.02;;;13.70;76.40;;;;;;5054151;28;20094;-65
2023/03/24 05:49:58;;;;;;;19.55;14.95;;;13.70;76.40;;;;;;5054488;28;20504;-66
2023/03/24 05:52:23;;;;;;;23.38;17.05;;;13.70;76.60;;;;;;5054376;28;20118;-66
2023/03/24 05:54:52;;;;;;;18.15;15.35;;;13.60;77.00;;;;;;5054761;28;20462;-66
2023/03/24 05:57:19;;;;;;;19.73;15.23;;;13.60;77.00;;;;;;5054027;28;20048;-66
2023/03/24 05:59:45;;;;;;;20.02;15.95;;;13.50;77.30;;;;;;5054650;28;20029;-65
2023/03/24 06:02:10;;;;;;;20.75;15.98;;;13.60;77.10;;;;;;5054183;28;20044;-66
2023/03/24 06:04:36;;;;;;;21.50;16.83;;;13.50;77.50;;;;;;5054529;28;20025;-66
2023/03/24 06:07:02;;;;;;;22.58;16.33;;;13.50;77.90;;;;;;5054331;28;20052;-65
2023/03/24 06:09:34;;;;;;;23.15;16.38;;;13.50;78.30;;;;;;5053674;28;20039;-66
2023/03/24 06:12:04;;;;;;;21.73;15.93;;;13.50;78.40;;;;;;5054679;28;20079;-66
2023/03/24 06:14:30;;;;;;;18.48;15.23;;;13.50;78.00;;;;;;5053955;28;20029;-66
2023/03/24 06:16:58;;;;;;;21.95;15.10;;;13.60;78.00;;;;;;5054167;28;20029;-66
2023/03/24 06:19:29;;;;;;;21.23;14.60;;;13.60;78.10;;;;;;5053799;28;20025;-65
2023/03/24 06:21:55;;;;;;;;;;;13.70;77.60;;;;;;5054693;28;20033;-65
2023/03/24 06:24:20;;;;;;;19.10;14.25;;;13.80;77.30;;;;;;5052568;28;20431;-66
2023/03/24 06:26:49;;;;;;;20.35;14.55;;;13.90;76.70;;;;;;5053648;28;20358;-66
2023/03/24 06:29:18;;;;;;;20.75;13.18;;;14.00;76.40;;;;;;5053614;28;20078;-66
2023/03/24 06:31:45;;;;;;;20.98;13.75;;;14.00;75.80;;;;;;5054327;28;20024;-65
2023/03/24 06:34:11;;;;;;;25.90;14.30;;;14.00;75.90;;;;;;5054060;28;20029;-65
2023/03/24 06:36:36;;;;;;;19.38;14.48;;;14.00;76.10;;;;;;5052273;28;20028;-65
2023/03/24 06:39:04;;;;;;;17.02;14.27;;;14.10;76.00;;;;;;5053362;28;20056;-64
2023/03/24 06:41:30;;;;;;;21.25;13.32;;;14.20;75.90;;;;;;5053100;28;20029;-64
2023/03/24 06:43:56;;;;;;;23.20;14.02;;;14.30;75.80;;;;;;5053679;28;20482;-65
2023/03/24 06:46:22;;;;;;;15.05;12.43;;;14.30;74.90;;;;;;5053094;28;20059;-65
2023/03/24 06:48:48;;;;;;;19.65;13.13;;;14.30;74.90;;;;;;5053658;28;20025;-65
2023/03/24 06:51:14;;;;;;;16.75;12.70;;;14.30;74.40;;;;;;5052886;28;20041;-67
2023/03/24 06:53:40;;;;;;;15.30;12.82;;;14.30;74.40;;;;;;5053322;28;20021;-65
2023/03/24 06:56:06;;;;;;;17.30;12.73;;;14.20;75.00;;;;;;5053330;28;20456;-65
2023/03/24 06:58:33;;;;;;;17.63;12.77;;;14.10;75.30;;;;;;5052486;28;20025;-65
2023/03/24 07:01:02;;;;;;;19.08;12.82;;;14.10;75.70;;;;;;5052861;28;20131;-65
2023/03/24 07:03:27;;;;;;;19.05;13.48;;;14.10;75.90;;;;;;5052757;28;20036;-64
2023/03/24 07:05:54;;;;;;;23.08;14.25;;;14.10;76.30;;;;;;5053038;28;20130;-65
2023/03/24 07:08:19;;;;;;;20.35;14.15;;;14.20;76.30;;;;;;5052619;28;20029;-65
2023/03/24 07:10:45;;;;;;;17.48;13.38;;;14.30;76.50;;;;;;5053146;28;20040;-65
2023/03/24 07:13:11;;;;;;;15.40;13.63;;;14.50;76.40;;;;;;5053256;28;20029;-65
2023/03/24 07:15:36;;;;;;;18.58;13.25;;;14.60;74.60;;;;;;5052514;28;20017;-65
2023/03/24 07:18:02;;;;;;;25.30;13.55;;;14.50;74.70;;;;;;5053663;28;20021;-65
2023/03/24 07:20:28;;;;;;;22.77;13.52;;;14.50;75.00;;;;;;5052907;28;20031;-65
2023/03/24 07:22:57;;;;;;;20.83;12.98;;;14.60;74.90;;;;;;5053023;28;20036;-65
2023/03/24 07:25:24;;;;;;;22.73;13.57;;;14.80;75.00;;;;;;5051363;28;20461;-64
2023/03/24 07:27:54;;;;;;;19.38;13.02;;;14.80;74.10;;;;;;5053036;28;20029;-64
2023/03/24 07:30:20;;;;;;;16.23;13.60;;;14.90;73.90;;;;;;5052345;28;20092;-66
2023/03/24 07:32:48;;;;;;;16.90;12.25;;;15.00;73.50;;;;;;5052870;28;20021;-65
2023/03/24 07:35:15;;;;;;;19.65;12.43;;;15.00;72.50;;;;;;5052701;28;20040;-65
2023/03/24 07:37:42;;;;;;;19.95;13.05;;;15.10;72.50;;;;;;5051932;28;20063;-65
2023/03/24 07:40:10;;;;;;;19.23;13.13;;;15.20;72.50;;;;;;5052377;28;20469;-65
2023/03/24 07:42:41;;;;;;;19.17;12.82;;;15.40;72.30;;;;;;5051937;28;20053;-65
2023/03/24 07:45:10;;;;;;;18.15;12.05;;;15.40;70.90;;;;;;5052970;28;20032;-64
2023/03/24 07:47:37;;;;;;;15.75;11.95;;;15.40;71.10;;;;;;5052099;28;20457;-65
2023/03/24 07:50:08;;;;;;;21.73;12.73;;;15.40;70.10;;;;;;5052460;28;20079;-64
2023/03/24 07:52:38;;;;;;;18.50;11.52;;;15.40;70.50;;;;;;5051803;28;20386;-65
2023/03/24 07:55:07;;;;;;;15.77;12.00;;;15.50;70.40;;;;;;5052668;28;20021;-65
2023/03/24 07:57:36;;;;;;;17.60;11.40;;;15.60;70.40;;;;;;5052084;28;20025;-65
2023/03/24 08:00:08;;;;;;;17.73;11.35;;;15.60;70.50;;;;;;5052551;28;20039;-65
2023/03/24 08:02:33;;;;;;;16.05;10.45;;;15.70;70.50;;;;;;5051987;28;20067;-65
2023/03/24 08:04:59;;;;;;;17.02;11.20;;;15.70;69.90;;;;;;5052192;28;20152;-65
2023/03/24 08:07:24;;;;;;;15.23;10.48;;;15.70;69.80;;;;;;5052276;28;20519;-65
2023/03/24 08:09:50;;;;;;;14.93;11.18;;;15.80;69.80;;;;;;5052260;28;20090;-65
2023/03/24 08:12:16;;;;;;;17.25;11.55;;;15.80;69.30;;;;;;5051972;28;20067;-65
2023/03/24 08:14:41;;;;;;;14.65;11.07;;;15.70;69.60;;;;;;5051567;28;20114;-65
2023/03/24 08:17:08;;;;;;;14.73;10.80;;;15.80;69.30;;;;;;5052225;28;20029;-65
2023/03/24 08:19:33;;;;;;;19.38;12.55;;;15.80;69.50;;;;;;5051809;28;20410;-64
2023/03/24 08:21:59;;;;;;;18.90;12.07;;;15.90;69.50;;;;;;5052295;28;20110;-64
2023/03/24 08:24:25;;;;;;;14.65;10.40;;;15.90;69.10;;;;;;5051736;28;20458;-66
2023/03/24 08:26:51;;;;;;;19.40;12.52;;;15.90;69.00;;;;;;5052456;28;20033;-66
2023/03/24 08:29:17;;;;;;;16.55;10.98;;;15.90;69.60;;;;;;5052177;28;20021;-65
2023/03/24 08:31:42;;;;;;;27.95;12.93;;;16.00;68.90;;;;;;5051800;28;20044;-66
2023/03/24 08:34:10;;;;;;;17.27;11.32;;;16.00;68.70;;;;;;5052092;28;20027;-65
2023/03/24 08:36:36;;;;;;;15.65;11.57;;;16.00;68.70;;;;;;5051821;28;20509;-65
2023/03/24 08:39:05;;;;;;;16.75;12.45;;;16.10;68.30;;;;;;5052159;28;20120;-65
2023/03/24 08:41:33;;;;;;;14.90;11.65;;;16.10;68.40;;;;;;5051541;28;20043;-65
2023/03/24 08:44:02;;;;;;;37.78;13.52;;;16.10;68.20;;;;;;5051569;28;20131;-65
2023/03/24 08:46:31;;;;;;;19.73;11.95;;;16.20;68.10;;;;;;5051680;28;20033;-66
2023/03/24 08:48:58;;;;;;;15.20;12.30;;;16.20;68.00;;;;;;5052245;28;20025;-65
2023/03/24 08:51:25;;;;;;;19.58;13.50;;;16.40;68.00;;;;;;5055450;28;20043;-67
2023/03/24 08:53:51;;;;;;;20.17;12.45;;;16.50;67.60;;;;;;5055667;28;20442;-65
2023/03/24 08:56:18;;;;;;;16.50;12.80;;;16.60;67.50;;;;;;5055717;28;20378;-65
2023/03/24 08:58:47;;;;;;;16.13;12.32;;;16.70;66.40;;;;;;5054649;28;20079;-65
2023/03/24 09:01:13;;;;;;;16.20;12.73;;;16.70;66.60;;;;;;5055620;28;20485;-65
2023/03/24 09:03:39;;;;;;;16.40;11.38;;;16.90;65.90;;;;;;5054922;28;20017;-65
2023/03/24 09:06:05;;;;;;;18.25;12.23;;;17.00;66.00;;;;;;5055591;28;20073;-66
2023/03/24 09:08:31;;;;;;;17.48;12.93;;;17.10;65.20;;;;;;5055213;28;20217;-66
2023/03/24 09:10:57;;;;;;;15.48;12.15;;;17.10;65.10;;;;;;5054346;28;20411;-66
2023/03/24 09:13:22;;;;;;;20.33;13.10;;;17.20;65.50;;;;;;5055169;28;20106;-66
2023/03/24 09:15:50;;;;;;;18.38;12.60;;;17.20;64.30;;;;;;5054737;28;20466;-66
2023/03/24 09:18:16;;;;;;;20.52;12.82;;;17.30;64.50;;;;;;5055218;28;20036;-66
2023/03/24 09:20:43;;;;;;;19.92;12.75;;;17.30;65.10;;;;;;5054762;28;20039;-66
2023/03/24 09:23:09;;;;;;;19.17;12.95;;;17.40;64.70;;;;;;5055088;28;20025;-66
2023/03/24 09:25:34;;;;;;;17.92;13.45;;;17.50;64.70;;;;;;5054807;28;20032;-66
2023/03/24 09:28:01;;;;;;;23.00;13.70;;;17.60;63.70;;;;;;5054767;28;20039;-66
2023/03/24 09:30:27;;;;;;;20.77;13.95;;;17.70;64.20;;;;;;5054749;28;20037;-66
2023/03/24 09:32:52;;;;;;;21.38;14.80;;;17.80;63.70;;;;;;5054223;28;20032;-65
2023/03/24 09:35:18;;;;;;;18.95;14.85;;;17.90;63.50;;;;;;5055306;28;20032;-65
2023/03/24 09:37:45;;;;;;;26.20;15.45;;;18.00;62.90;;;;;;5054610;28;20489;-65
2023/03/24 09:40:29;;;;;;;23.40;14.40;;;18.00;61.90;;;;;;5055111;28;20059;-65
2023/03/24 09:43:26;;;;;;;22.08;14.57;;;18.00;62.00;;;;;;5055061;28;20044;-65
2023/03/24 09:45:57;;;;;;;24.10;14.05;;;18.10;61.80;;;;;;5054520;28;20061;-65
2023/03/24 09:48:34;;;;;;;22.60;14.27;;;18.10;61.30;;;;;;5054879;28;20108;-65
2023/03/24 09:51:26;;;;;;;17.77;13.30;;;18.10;61.10;;;;;;5054673;28;20094;-65
2023/03/24 09:54:06;;;;;;;19.00;14.52;;;18.10;60.80;;;;;;5054156;28;20041;-65
2023/03/24 09:56:36;;;;;;;18.75;14.10;;;18.20;60.40;;;;;;5054070;28;20371;-65
2023/03/24 09:59:12;;;;;;;18.70;13.65;;;18.20;60.60;;;;;;5054893;28;20025;-65
2023/03/24 10:01:38;;;;;;;20.17;13.98;;;18.30;60.50;;;;;;5053091;28;20028;-65
2023/03/24 10:04:10;;;;;;;16.48;13.20;;;18.30;60.00;;;;;;5054283;28;20081;-65
2023/03/24 10:06:40;;;;;;;18.25;13.05;;;18.40;59.90;;;;;;5054126;28;20021;-66
2023/03/24 10:09:12;;;;;;;20.67;14.30;;;18.40;59.60;;;;;;5054505;28;20037;-65
2023/03/24 10:12:26;;;;;;;21.73;13.63;;;18.50;59.80;;;;;;5053794;28;20037;-65
2023/03/24 10:15:02;;;;;;;18.50;13.48;;;18.60;59.30;;;;;;5051444;28;20501;-66
2023/03/24 10:17:36;;;;;;;15.45;13.20;;;18.70;59.00;;;;;;5054394;28;20029;-66
2023/03/24 10:20:20;;;;;;;22.85;11.93;;;18.80;58.40;;;;;;5054440;28;20025;-66
2023/03/24 10:23:07;;;;;;;17.67;11.32;;;18.90;57.80;;;;;;5053763;28;20402;-64
2023/03/24 10:25:45;;;;;;;13.75;10.55;;;18.90;57.50;;;;;;5053560;28;20070;-66
2023/03/24 10:28:14;;;;;;;17.55;12.55;;;18.90;57.70;;;;;;5054111;28;20043;-65
2023/03/24 10:30:42;;;;;;;14.57;10.77;;;19.00;56.80;;;;;;5053378;28;20107;-65
2023/03/24 10:33:12;;;;;;;13.90;11.13;;;18.90;56.60;;;;;;5053926;28;20025;-66
2023/03/24 10:35:49;;;;;;;15.77;10.73;;;18.90;56.70;;;;;;5052372;28;20028;-66
2023/03/24 10:38:19;;;;;;;12.75;11.23;;;19.00;57.10;;;;;;5052481;28;20391;-67
2023/03/24 10:40:46;;;;;;;16.95;10.48;;;19.10;57.20;;;;;;5049882;28;20029;-66
2023/03/24 10:43:12;;;;;;;15.43;10.52;;;19.10;56.40;;;;;;5052427;28;20052;-66
2023/03/24 10:45:42;;;;;;;17.63;10.45;;;19.10;56.60;;;;;;5051847;28;20106;-66
2023/03/24 10:48:11;;;;;;;16.15;10.82;;;19.20;56.90;;;;;;5052307;28;20028;-66
2023/03/24 10:50:42;;;;;;;17.80;10.85;;;19.20;56.10;;;;;;5051740;28;20397;-66
2023/03/24 10:53:19;;;;;;;13.02;9.45;;;19.20;56.00;;;;;;5052397;28;20032;-66
2023/03/24 10:55:46;;;;;;;14.70;9.50;;;19.30;56.40;;;;;;5049312;28;20473;-66
2023/03/24 10:58:35;;;;;;;12.57;10.30;;;19.30;55.80;;;;;;5052081;28;20028;-66
2023/03/24 11:01:02;;;;;;;17.70;9.82;;;19.30;56.00;;;;;;5053234;28;20029;-65
2023/03/24 11:03:31;;;;;;;19.02;11.13;;;19.40;56.40;;;;;;5053366;28;20029;-66
2023/03/24 11:06:02;;;;;;;15.50;10.38;;;19.50;55.70;;;;;;5052782;28;20051;-66
2023/03/24 11:08:31;;;;;;;13.43;10.43;;;19.40;55.30;;;;;;5052776;28;20476;-65
2023/03/24 11:10:57;;;;;;;17.67;9.95;;;19.50;55.70;;;;;;5052853;28;20056;-65
2023/03/24 11:13:31;;;;;;;15.05;10.85;;;19.60;55.90;;;;;;5052432;28;20029;-65
2023/03/24 11:16:15;;;;;;;14.43;10.38;;;19.50;55.30;;;;;;5052392;28;20028;-65
2023/03/24 11:19:00;;;;;;;14.00;9.73;;;19.60;56.10;;;;;;5052738;28;20039;-65
2023/03/24 11:21:28;;;;;;;14.90;10.30;;;19.70;55.50;;;;;;5053064;28;20036;-65
2023/03/24 11:23:58;;;;;;;12.18;9.38;;;19.80;55.40;;;;;;5052752;28;20028;-66
2023/03/24 11:26:38;;;;;;;14.07;10.52;;;19.90;54.90;;;;;;5053090;28;20029;-65
2023/03/24 11:29:06;;;;;;;16.63;10.13;;;20.00;55.20;;;;;;5052938;28;20025;-66
2023/03/24 11:31:37;;;;;;;13.82;9.13;;;20.00;54.70;;;;;;5052891;28;20368;-66
2023/03/24 11:34:08;;;;;;;16.73;10.27;;;20.10;54.60;;;;;;5052648;28;20017;-66
2023/03/24 11:36:47;;;;;;;16.73;10.63;;;20.10;54.40;;;;;;5052853;28;20276;-65
2023/03/24 11:39:27;;;;;;;18.70;10.60;;;20.20;53.50;;;;;;5052890;28;20084;-65
2023/03/24 11:42:11;;;;;;;12.82;10.40;;;20.10;53.20;;;;;;5052310;28;20167;-65
2023/03/24 11:44:37;;;;;;;20.50;9.75;;;20.20;53.30;;;;;;5052313;28;20048;-68
2023/03/24 11:47:10;;;;;;;14.85;9.15;;;20.20;53.30;;;;;;5052321;28;20470;-65
2023/03/24 11:50:02;;;;;;;14.00;9.18;;;20.30;53.40;;;;;;5052438;28;20032;-65
2023/03/24 11:52:40;;;;;;;15.05;9.15;;;20.30;53.20;;;;;;5045034;28;20110;-65
2023/03/24 11:55:15;;;;;;;16.48;9.68;;;20.20;52.40;;;;;;5052590;28;20055;-65
2023/03/24 11:58:05;;;;;;;12.82;8.93;;;20.20;52.80;;;;;;5052089;28;20021;-65
2023/03/24 12:00:56;;;;;;;16.95;9.77;;;20.20;52.30;;;;;;5032436;28;20290;-65
2023/03/24 12:03:59;;;;;;;10.98;8.90;;;20.20;51.90;;;;;;5052665;28;20032;-65
2023/03/24 12:06:37;;;;;;;17.00;8.95;;;20.10;52.30;;;;;;5052210;28;20025;-66
2023/03/24 12:09:09;;;;;;;12.65;8.75;;;20.20;52.70;;;;;;5051856;28;20024;-65
2023/03/24 12:11:50;;;;;;;14.60;8.65;;;20.20;53.60;;;;;;5052264;28;20035;-65
2023/03/24 12:14:29;;;;;;;13.07;8.75;;;20.20;53.30;;;;;;5052505;28;20088;-65
2023/03/24 12:17:27;;;;;;;13.10;8.52;;;20.30;53.70;;;;;;5051647;28;20083;-65
2023/03/24 12:20:11;;;;;;;13.32;8.98;;;20.30;53.60;;;;;;5052091;28;20029;-65
2023/03/24 12:23:11;;;;;;;14.55;8.63;;;20.50;53.80;;;;;;5052543;28;20079;-65
2023/03/24 12:25:47;;;;;;;10.82;8.82;;;20.50;53.60;;;;;;5047516;28;20041;-65
2023/03/24 12:28:58;;;;;;;12.98;8.85;;;20.50;53.30;;;;;;5056296;28;20466;-65
2023/03/24 12:31:47;;;;;;;14.52;7.90;;;20.50;53.30;;;;;;5056051;28;20037;-65
2023/03/24 12:34:54;;;;;;;16.05;8.77;;;20.50;53.20;;;;;;5056283;28;20025;-65
2023/03/24 12:37:52;;;;;;;13.80;8.88;;;20.50;53.30;;;;;;5039674;28;20037;-65
2023/03/24 12:40:27;;;;;;;14.50;9.63;;;20.50;53.30;;;;;;5056027;28;20094;-65
2023/03/24 12:43:19;;;;;;;11.75;8.68;;;20.50;53.60;;;;;;5055426;28;20052;-65
2023/03/24 12:45:52;;;;;;;17.67;9.18;;;20.50;54.10;;;;;;5053812;28;20127;-65
2023/03/24 12:48:48;;;;;;;15.93;9.05;;;20.50;53.80;;;;;;5056168;28;20029;-65
2023/03/24 12:51:20;;;;;;;17.40;8.98;;;20.60;53.70;;;;;;5055627;28;20036;-65
2023/03/24 12:54:08;;;;;;;15.63;9.13;;;20.60;53.50;;;;;;5054923;28;20017;-66
2023/03/24 12:56:41;;;;;;;14.07;8.93;;;20.60;53.80;;;;;;5055687;28;20036;-66